createdAt,value
2023-03-31T00:02:06.065Z,99148.66
2023-03-31T00:04:34.340Z,99132.28
2023-03-31T00:07:01.235Z,99133.00
2023-03-31T00:09:28.124Z,99126.50
2023-03-31T00:11:55.321Z,99138.53
2023-03-31T00:14:22.424Z,99126.88
2023-03-31T00:16:49.356Z,99116.72
2023-03-31T00:19:16.387Z,99116.63
2023-03-31T00:21:44.928Z,99109.66
2023-03-31T00:24:14.431Z,99107.19
2023-03-31T00:26:41.292Z,99096.84
2023-03-31T00:29:12.647Z,99097.56
2023-03-31T00:31:39.990Z,99086.84
2023-03-31T00:34:08.092Z,99078.09
2023-03-31T00:36:35.449Z,99065.06
2023-03-31T00:39:06.166Z,99071.50
2023-03-31T00:41:33.199Z,99070.88
2023-03-31T00:44:08.970Z,99064.03
2023-03-31T00:46:44.241Z,99058.25
2023-03-31T00:49:25.363Z,99048.72
2023-03-31T00:51:57.679Z,99043.81
2023-03-31T00:54:29.522Z,99042.25
2023-03-31T00:56:57.329Z,99036.25
2023-03-31T00:59:30.889Z,99038.00
2023-03-31T01:02:00.409Z,99030.16
2023-03-31T01:04:28.100Z,99023.94
2023-03-31T01:07:04.913Z,99028.06
2023-03-31T01:09:33.182Z,99031.44
2023-03-31T01:12:01.691Z,99020.53
2023-03-31T01:14:29.163Z,99013.44
2023-03-31T01:16:56.098Z,99015.44
2023-03-31T01:19:44.986Z,99005.22
2023-03-31T01:23:06.144Z,99010.28
2023-03-31T01:26:30.454Z,99007.94
2023-03-31T01:29:09.497Z,99003.22
2023-03-31T01:32:14.081Z,98997.25
2023-03-31T01:35:44.697Z,98996.19
2023-03-31T01:39:04.485Z,98989.47
2023-03-31T01:41:53.254Z,98984.06
2023-03-31T01:44:39.331Z,98993.69
2023-03-31T01:47:16.034Z,99000.75
2023-03-31T01:49:56.909Z,98984.94
2023-03-31T01:52:34.023Z,98986.22
2023-03-31T01:55:12.375Z,98982.31
2023-03-31T01:57:47.964Z,98983.09
2023-03-31T02:00:19.635Z,98984.16
2023-03-31T02:02:56.626Z,98991.66
2023-03-31T02:05:27.122Z,98982.63
2023-03-31T02:08:02.071Z,98983.59
2023-03-31T02:10:33.019Z,98988.06
2023-03-31T02:13:04.153Z,98981.50
2023-03-31T02:15:38.151Z,98977.56
2023-03-31T02:18:11.171Z,98973.38
2023-03-31T02:20:44.019Z,98968.22
2023-03-31T02:23:16.160Z,98965.28
2023-03-31T02:25:50.736Z,98953.59
2023-03-31T02:28:24.567Z,98945.47
2023-03-31T02:31:11.489Z,98945.34
2023-03-31T02:33:38.412Z,98942.47
2023-03-31T02:36:06.759Z,98931.06
2023-03-31T02:38:40.303Z,98936.16
2023-03-31T02:41:08.160Z,98934.00
2023-03-31T02:43:36.780Z,98917.03
2023-03-31T02:46:04.279Z,98912.75
2023-03-31T02:48:38.301Z,98920.84
2023-03-31T02:51:51.758Z,98918.84
2023-03-31T02:54:58.927Z,98905.13
2023-03-31T02:57:56.722Z,98888.22
2023-03-31T03:00:47.951Z,98869.06
2023-03-31T03:03:34.070Z,98861.31
2023-03-31T03:06:25.167Z,98849.78
2023-03-31T03:09:36.354Z,98828.84
2023-03-31T03:12:21.233Z,98812.16
2023-03-31T03:14:55.964Z,98800.59
2023-03-31T03:17:30.359Z,98788.16
2023-03-31T03:20:02.014Z,98782.25
2023-03-31T03:22:29.210Z,98777.41
2023-03-31T03:24:56.117Z,98769.78
2023-03-31T03:27:23.128Z,98764.97
2023-03-31T03:29:50.201Z,98755.78
2023-03-31T03:32:17.199Z,98753.91
2023-03-31T03:34:45.873Z,98752.81
2023-03-31T03:37:12.980Z,98746.16
2023-03-31T03:39:39.983Z,98745.69
2023-03-31T03:42:06.924Z,98760.34
2023-03-31T03:44:34.032Z,98741.25
2023-03-31T03:47:00.826Z,98735.59
2023-03-31T03:49:27.737Z,98727.63
2023-03-31T03:51:56.289Z,98720.53
2023-03-31T03:54:23.177Z,98712.22
2023-03-31T03:56:50.085Z,98695.25
2023-03-31T03:59:17.122Z,98674.19
2023-03-31T04:01:44.467Z,98679.44
2023-03-31T04:04:11.202Z,98668.41
2023-03-31T04:06:38.248Z,98655.53
2023-03-31T04:09:06.532Z,98666.34
2023-03-31T04:11:34.204Z,98659.31
2023-03-31T04:14:01.060Z,98665.84
2023-03-31T04:16:28.191Z,98662.75
2023-03-31T04:18:55.452Z,98674.09
2023-03-31T04:21:23.616Z,98677.88
2023-03-31T04:23:54.241Z,98678.13
2023-03-31T04:26:23.058Z,98673.78
2023-03-31T04:28:49.919Z,98661.47
2023-03-31T04:31:17.890Z,98646.78
2023-03-31T04:33:44.982Z,98634.50
2023-03-31T04:36:12.221Z,98639.59
2023-03-31T04:38:39.112Z,98641.88
2023-03-31T04:41:06.254Z,98630.75
2023-03-31T04:43:34.521Z,98635.72
2023-03-31T04:46:01.432Z,98641.81
2023-03-31T04:48:28.468Z,98641.06
2023-03-31T04:50:55.340Z,98620.78
2023-03-31T04:53:22.240Z,98616.47
2023-03-31T04:55:49.858Z,98618.91
2023-03-31T04:58:16.872Z,98611.22
2023-03-31T05:00:45.561Z,98611.06
2023-03-31T05:03:12.747Z,98610.06
2023-03-31T05:05:39.704Z,98617.53
2023-03-31T05:08:06.494Z,98611.56
2023-03-31T05:10:33.604Z,98610.09
2023-03-31T05:13:00.574Z,98612.41
2023-03-31T05:15:27.478Z,98602.84
2023-03-31T05:17:57.842Z,98601.53
2023-03-31T05:20:24.783Z,98604.66
2023-03-31T05:22:51.889Z,98609.06
2023-03-31T05:25:18.978Z,98608.47
2023-03-31T05:27:47.553Z,98608.66
2023-03-31T05:30:15.567Z,98618.78
2023-03-31T05:32:43.325Z,98610.50
2023-03-31T05:35:11.816Z,98624.06
2023-03-31T05:37:38.599Z,98618.97
2023-03-31T05:40:07.712Z,98635.00
2023-03-31T05:42:35.938Z,98626.28
2023-03-31T05:45:03.568Z,98626.75
2023-03-31T05:47:31.323Z,98612.31
2023-03-31T05:49:58.470Z,98597.84
2023-03-31T05:52:27.229Z,98602.56
2023-03-31T05:54:54.154Z,98593.03
2023-03-31T05:57:21.007Z,98579.09
2023-03-31T05:59:47.980Z,98576.06
2023-03-31T06:02:14.996Z,98579.16
2023-03-31T06:04:41.981Z,98563.69
2023-03-31T06:07:08.827Z,98554.75
2023-03-31T06:09:37.257Z,98542.81
2023-03-31T06:12:05.085Z,98549.75
2023-03-31T06:14:31.970Z,98561.56
2023-03-31T06:16:58.792Z,98548.00
2023-03-31T06:19:25.798Z,98535.31
2023-03-31T06:21:53.081Z,98527.22
2023-03-31T06:24:20.016Z,98520.78
2023-03-31T06:26:48.575Z,98521.56
2023-03-31T06:29:16.224Z,98526.03
2023-03-31T06:31:43.349Z,98524.50
2023-03-31T06:34:10.571Z,98527.78
2023-03-31T06:36:38.056Z,98525.66
2023-03-31T06:39:07.390Z,98519.22
2023-03-31T06:41:37.074Z,98523.31
2023-03-31T06:44:06.826Z,98519.31
2023-03-31T06:46:33.992Z,98512.66
2023-03-31T06:49:00.960Z,98524.28
2023-03-31T06:51:28.363Z,98532.59
2023-03-31T06:53:56.133Z,98517.44
2023-03-31T06:56:22.884Z,98521.44
2023-03-31T06:58:50.756Z,98517.44
2023-03-31T07:01:19.074Z,98516.88
2023-03-31T07:03:47.647Z,98486.38
2023-03-31T07:06:14.982Z,98509.47
2023-03-31T07:08:41.734Z,98518.88
2023-03-31T07:11:09.650Z,98509.59
2023-03-31T07:13:36.874Z,98510.06
2023-03-31T07:16:04.338Z,98499.38
2023-03-31T07:18:34.799Z,98479.78
2023-03-31T07:21:09.092Z,98429.22
2023-03-31T07:23:38.128Z,98387.84
2023-03-31T07:26:05.369Z,98401.78
2023-03-31T07:28:35.113Z,98431.09
2023-03-31T07:31:02.140Z,98453.81
2023-03-31T07:33:28.878Z,98454.41
2023-03-31T07:36:10.724Z,98431.25
2023-03-31T07:44:38.466Z,98442.53
2023-03-31T07:47:05.511Z,98442.78
2023-03-31T07:49:34.050Z,98447.31
2023-03-31T07:52:03.275Z,98427.66
2023-03-31T07:54:30.211Z,98447.78
2023-03-31T07:56:57.275Z,98454.22
2023-03-31T07:59:24.222Z,98453.06
2023-03-31T08:01:51.341Z,98443.22
2023-03-31T08:04:18.627Z,98446.63
2023-03-31T08:06:45.545Z,98436.28
2023-03-31T08:09:13.775Z,98439.16
2023-03-31T08:11:42.452Z,98432.63
2023-03-31T08:14:09.394Z,98433.84
2023-03-31T08:16:36.447Z,98437.47
2023-03-31T08:19:03.759Z,98440.16
2023-03-31T08:21:30.790Z,98444.13
2023-03-31T08:23:58.510Z,98443.81
2023-03-31T08:26:26.959Z,98436.84
2023-03-31T08:28:54.113Z,98439.34
2023-03-31T08:31:22.248Z,98433.66
2023-03-31T08:33:50.156Z,98437.97
2023-03-31T08:36:17.586Z,98420.38
2023-03-31T08:38:44.808Z,98418.31
2023-03-31T08:41:33.921Z,98412.97
2023-03-31T08:44:09.056Z,98414.13
2023-03-31T08:46:37.098Z,98418.59
2023-03-31T08:49:07.420Z,98412.94
2023-03-31T08:51:41.588Z,98419.66
2023-03-31T08:54:19.418Z,98413.34
2023-03-31T08:56:51.027Z,98396.56
2023-03-31T08:59:27.737Z,98405.19
2023-03-31T09:02:13.270Z,98404.88
2023-03-31T09:09:39.349Z,98399.47
2023-03-31T09:12:17.998Z,98399.22
2023-03-31T09:14:54.525Z,98389.69
2023-03-31T09:17:27.388Z,98398.94
2023-03-31T09:31:54.222Z,98349.59
2023-03-31T09:34:40.518Z,98351.84
2023-03-31T09:37:32.239Z,98355.25
2023-03-31T09:40:04.578Z,98371.28
2023-03-31T09:42:36.770Z,98369.25
2023-03-31T09:45:05.110Z,98372.81
2023-03-31T09:47:39.978Z,98364.59
2023-03-31T09:50:09.523Z,98357.59
2023-03-31T09:52:44.260Z,98355.63
2023-03-31T09:59:25.103Z,98345.66
2023-03-31T10:01:57.481Z,98365.16
2023-03-31T10:04:28.464Z,98349.59
2023-03-31T10:06:59.614Z,98368.03
2023-03-31T10:09:30.729Z,98388.13
2023-03-31T10:12:05.804Z,98381.47
2023-03-31T10:14:44.041Z,98395.81
2023-03-31T10:17:16.872Z,98386.34
2023-03-31T10:19:50.950Z,98396.00
2023-03-31T10:22:29.698Z,98383.19
2023-03-31T10:25:14.314Z,98381.81
2023-03-31T10:27:43.004Z,98389.34
2023-03-31T10:30:20.823Z,98374.41
2023-03-31T10:32:51.369Z,98365.81
2023-03-31T10:35:26.870Z,98349.44
2023-03-31T10:37:59.344Z,98357.13
2023-03-31T10:40:29.153Z,98377.81
2023-03-31T10:43:05.605Z,98370.44
2023-03-31T10:45:44.485Z,98360.66
2023-03-31T10:48:23.852Z,98326.44
2023-03-31T10:50:51.322Z,98339.44
2023-03-31T10:53:19.924Z,98331.72
2023-03-31T10:56:05.468Z,98324.16
2023-03-31T10:59:04.640Z,98304.94
2023-03-31T11:01:58.936Z,98299.69
2023-03-31T11:04:51.689Z,98291.41
2023-03-31T11:07:35.577Z,98276.78
2023-03-31T11:10:29.188Z,98278.13
2023-03-31T11:13:05.607Z,98286.38
2023-03-31T11:15:42.633Z,98283.50
2023-03-31T11:18:36.207Z,98291.63
2023-03-31T11:21:20.754Z,98381.63
2023-03-31T11:24:05.101Z,98404.41
2023-03-31T11:26:48.069Z,98377.88
2023-03-31T11:29:34.913Z,98365.84
2023-03-31T11:32:31.497Z,98378.56
2023-03-31T11:35:16.304Z,98373.63
2023-03-31T11:38:08.334Z,98359.16
2023-03-31T11:40:54.081Z,98369.47
2023-03-31T11:43:32.697Z,98377.16
2023-03-31T11:46:07.570Z,98381.34
2023-03-31T11:48:44.294Z,98358.75
2023-03-31T11:51:20.645Z,98329.13
2023-03-31T11:53:51.444Z,98352.25
2023-03-31T11:56:21.398Z,98342.56
2023-03-31T11:58:53.993Z,98358.41
2023-03-31T12:01:28.714Z,98360.13
2023-03-31T12:04:04.791Z,98365.00
2023-03-31T12:06:41.236Z,98358.78
2023-03-31T12:09:19.652Z,98357.59
2023-03-31T12:11:55.212Z,98358.91
2023-03-31T12:14:32.441Z,98352.41
2023-03-31T12:17:09.717Z,98340.56
2023-03-31T12:19:48.024Z,98345.84
2023-03-31T12:22:24.129Z,98338.16
2023-03-31T12:24:54.896Z,98341.31
2023-03-31T12:27:32.897Z,98335.94
2023-03-31T12:30:09.395Z,98322.25
2023-03-31T12:32:43.247Z,98327.63
2023-03-31T12:35:20.239Z,98338.28
2023-03-31T12:38:27.614Z,98333.31
2023-03-31T12:41:08.324Z,98334.66
2023-03-31T12:44:16.601Z,98323.38
2023-03-31T12:47:21.679Z,98313.88
2023-03-31T12:50:08.889Z,98316.31
2023-03-31T12:52:53.378Z,98309.06
2023-03-31T12:55:40.081Z,98320.22
2023-03-31T12:58:42.728Z,98306.81
2023-03-31T13:01:14.311Z,98298.94
2023-03-31T13:04:08.660Z,98304.72
2023-03-31T13:07:00.679Z,98291.94
2023-03-31T13:09:50.911Z,98295.25
2023-03-31T13:12:23.933Z,98300.09
2023-03-31T13:14:53.551Z,98306.41
2023-03-31T13:17:28.289Z,98323.78
2023-03-31T13:20:14.876Z,98285.81
2023-03-31T13:22:46.346Z,98293.13
2023-03-31T13:25:53.644Z,98277.00
2023-03-31T13:28:37.924Z,98284.34
2023-03-31T13:31:07.866Z,98257.97
2023-03-31T13:33:43.830Z,98276.50
2023-03-31T13:36:49.224Z,98271.63
2023-03-31T13:39:42.242Z,98274.84
2023-03-31T13:42:39.525Z,98280.50
2023-03-31T13:45:44.314Z,98271.66
2023-03-31T13:48:50.419Z,98280.13
2023-03-31T13:51:51.049Z,98281.78
2023-03-31T13:55:01.773Z,98271.69
2023-03-31T13:58:25.308Z,98265.94
2023-03-31T14:01:27.411Z,98263.22
2023-03-31T14:04:10.633Z,98266.72
2023-03-31T14:06:45.177Z,98266.91
2023-03-31T14:09:22.921Z,98258.63
2023-03-31T14:11:49.812Z,98253.00
2023-03-31T14:14:18.921Z,98245.06
2023-03-31T14:16:52.844Z,98248.53
2023-03-31T14:19:59.335Z,98241.06
2023-03-31T14:22:44.333Z,98238.66
2023-03-31T14:25:26.676Z,98223.75
2023-03-31T14:28:09.353Z,98236.47
2023-03-31T14:30:50.482Z,98231.63
2023-03-31T14:33:36.288Z,98231.78
2023-03-31T14:36:18.778Z,98218.13
2023-03-31T14:38:46.187Z,98223.38
2023-03-31T14:41:19.529Z,98208.91
2023-03-31T14:43:50.840Z,98225.56
2023-03-31T14:46:21.381Z,98216.50
2023-03-31T14:48:51.706Z,98227.28
2023-03-31T14:51:29.245Z,98215.25
2023-03-31T14:53:57.618Z,98225.56
2023-03-31T14:56:32.614Z,98216.38
2023-03-31T14:59:02.173Z,98208.50
2023-03-31T15:01:33.106Z,98213.13
2023-03-31T15:04:06.393Z,98212.63
2023-03-31T15:06:33.701Z,98205.53
2023-03-31T15:09:03.987Z,98205.81
2023-03-31T15:11:45.178Z,98209.34
2023-03-31T15:14:13.041Z,98220.75
2023-03-31T15:16:44.052Z,98210.16
2023-03-31T15:19:19.784Z,98217.47
2023-03-31T15:21:54.572Z,98219.75
2023-03-31T15:24:21.780Z,98210.25
2023-03-31T15:26:57.815Z,98214.59
2023-03-31T15:36:32.735Z,98202.16
2023-03-31T15:39:00.010Z,98201.84
2023-03-31T15:41:30.950Z,98194.53
2023-03-31T15:44:27.043Z,98200.03
2023-03-31T15:47:02.147Z,98201.09
2023-03-31T15:49:29.793Z,98184.31
2023-03-31T15:51:58.461Z,98207.13
2023-03-31T15:54:37.716Z,98216.63
2023-03-31T15:57:08.231Z,98216.09
2023-03-31T15:59:54.682Z,98209.88
2023-03-31T16:02:27.461Z,98249.81
2023-03-31T16:04:59.342Z,98242.50
2023-03-31T16:07:33.911Z,98226.19
2023-03-31T16:10:08.861Z,98222.38
2023-03-31T16:12:41.819Z,98219.09
2023-03-31T16:15:14.325Z,98210.41
2023-03-31T16:17:51.257Z,98217.50
2023-03-31T16:20:24.636Z,98216.13
2023-03-31T16:22:57.705Z,98222.91
2023-03-31T16:28:37.766Z,98217.75
2023-03-31T16:31:31.823Z,98222.66
2023-03-31T16:33:58.770Z,98224.81
2023-03-31T16:36:25.868Z,98230.25
2023-03-31T16:38:54.784Z,98225.34
2023-03-31T16:41:23.988Z,98231.59
2023-03-31T16:43:50.887Z,98237.56
2023-03-31T16:46:18.802Z,98234.06
2023-03-31T16:48:45.699Z,98238.91
2023-03-31T16:51:12.618Z,98249.50
2023-03-31T16:53:39.723Z,98238.91
2023-03-31T16:56:10.548Z,98242.72
2023-03-31T16:58:38.600Z,98235.91
2023-03-31T17:01:07.767Z,98258.69
2023-03-31T17:07:43.316Z,98279.84
2023-03-31T17:10:11.581Z,98286.59
2023-03-31T17:12:40.772Z,98296.56
2023-03-31T17:15:09.608Z,98306.63
2023-03-31T17:17:36.686Z,98298.03
2023-03-31T17:20:04.790Z,98298.13
2023-03-31T17:22:32.536Z,98288.63
2023-03-31T17:24:59.862Z,98279.50
2023-03-31T17:27:28.661Z,98296.59
2023-03-31T17:29:57.084Z,98300.06
2023-03-31T17:32:24.265Z,98298.88
2023-03-31T17:34:51.285Z,98308.44
2023-03-31T17:37:19.686Z,98314.88
2023-03-31T17:39:46.646Z,98303.78
2023-03-31T17:42:14.588Z,98319.19
2023-03-31T17:44:41.593Z,98331.03
2023-03-31T17:47:10.342Z,98353.47
2023-03-31T17:49:37.572Z,98392.28
2023-03-31T17:52:05.263Z,98376.06
2023-03-31T17:54:32.521Z,98366.66
2023-03-31T17:56:59.510Z,98343.91
2023-03-31T17:59:29.952Z,98345.16
2023-03-31T18:01:57.405Z,98333.50
2023-03-31T18:04:25.793Z,98285.53
2023-03-31T18:06:53.264Z,98279.41
2023-03-31T18:09:20.550Z,98282.03
2023-03-31T18:11:47.571Z,98297.44
2023-03-31T18:14:14.492Z,98309.50
2023-03-31T18:16:41.565Z,98320.28
2023-03-31T18:19:10.501Z,98319.06
2023-03-31T18:21:38.885Z,98311.78
2023-03-31T18:24:07.056Z,98312.06
2023-03-31T18:26:34.372Z,98322.28
2023-03-31T18:29:01.375Z,98316.56
2023-03-31T18:31:28.359Z,98315.41
2023-03-31T18:33:57.397Z,98319.53
2023-03-31T18:36:24.961Z,98311.56
2023-03-31T18:38:53.322Z,98322.09
2023-03-31T18:41:20.865Z,98316.59
2023-03-31T18:43:47.805Z,98322.00
2023-03-31T18:46:14.873Z,98319.00
2023-03-31T18:48:42.036Z,98318.34
2023-03-31T18:51:09.356Z,98325.69
2023-03-31T18:53:36.563Z,98329.91
2023-03-31T18:56:05.878Z,98320.63
2023-03-31T18:58:32.923Z,98324.69
2023-03-31T19:01:01.269Z,98336.41
2023-03-31T19:03:29.010Z,98331.75
2023-03-31T19:06:03.451Z,98343.34
2023-03-31T19:08:32.046Z,98340.31
2023-03-31T19:11:10.217Z,98341.13
2023-03-31T19:13:37.616Z,98343.03
2023-03-31T19:16:08.349Z,98338.00
2023-03-31T19:18:36.905Z,98334.75
2023-03-31T19:21:04.558Z,98335.22
2023-03-31T19:23:32.539Z,98325.84
2023-03-31T19:26:00.158Z,98321.16
2023-03-31T19:28:30.657Z,98322.53
2023-03-31T19:31:04.729Z,98320.56
2023-03-31T19:33:32.334Z,98325.16
2023-03-31T19:35:59.625Z,98320.56
2023-03-31T19:38:27.435Z,98322.22
2023-03-31T19:40:54.314Z,98324.69
2023-03-31T19:43:24.612Z,98316.13
2023-03-31T19:45:53.809Z,98325.00
2023-03-31T19:48:23.677Z,98314.91
2023-03-31T19:50:55.743Z,98330.69
2023-03-31T19:53:23.787Z,98336.81
2023-03-31T19:55:59.624Z,98338.28
2023-03-31T19:58:27.984Z,98359.03
2023-03-31T20:00:57.976Z,98364.19
2023-03-31T20:03:29.299Z,98378.38
2023-03-31T20:06:04.027Z,98385.22
2023-03-31T20:08:30.921Z,98385.81
2023-03-31T20:11:03.221Z,98386.16
2023-03-31T20:13:31.278Z,98365.75
2023-03-31T20:16:02.176Z,98354.59
2023-03-31T20:18:29.546Z,98355.38
2023-03-31T20:21:08.641Z,98354.16
2023-03-31T20:23:36.665Z,98350.75
2023-03-31T20:26:04.130Z,98342.09
2023-03-31T20:28:33.663Z,98338.34
2023-03-31T20:31:08.274Z,98339.97
2023-03-31T20:33:35.310Z,98351.72
2023-03-31T20:36:05.094Z,98340.50
2023-03-31T20:38:33.003Z,98329.97
2023-03-31T20:40:59.978Z,98327.75
2023-03-31T20:43:27.218Z,98335.66
2023-03-31T20:45:57.605Z,98334.03
2023-03-31T20:48:26.299Z,98338.28
2023-03-31T20:50:53.164Z,98335.19
2023-03-31T20:53:20.085Z,98346.19
2023-03-31T20:55:47.832Z,98347.81
2023-03-31T20:58:15.210Z,98349.91
2023-03-31T21:00:42.434Z,98348.72
2023-03-31T21:03:09.669Z,98335.78
2023-03-31T21:05:43.845Z,98343.16
2023-03-31T21:08:12.655Z,98335.41
2023-03-31T21:10:41.686Z,98339.72
2023-03-31T21:13:09.554Z,98336.06
2023-03-31T21:15:37.289Z,98344.75
2023-03-31T21:18:04.516Z,98340.25
2023-03-31T21:20:32.818Z,98341.16
2023-03-31T21:23:02.140Z,98346.66
2023-03-31T21:25:31.933Z,98344.75
2023-03-31T21:27:59.387Z,98337.25
2023-03-31T21:30:26.287Z,98332.97
2023-03-31T21:32:53.270Z,98344.84
2023-03-31T21:35:20.216Z,98341.56
2023-03-31T21:37:49.571Z,98338.38
2023-03-31T21:40:18.354Z,98331.25
2023-03-31T21:42:45.253Z,98334.44
2023-03-31T21:45:13.670Z,98347.34
2023-03-31T21:47:40.681Z,98350.97
2023-03-31T21:50:09.709Z,98345.84
2023-03-31T21:52:36.653Z,98346.00
2023-03-31T21:55:04.221Z,98357.81
2023-03-31T21:57:32.593Z,98357.34
2023-03-31T21:59:59.794Z,98359.38
2023-03-31T22:02:26.731Z,98361.25
2023-03-31T22:04:53.859Z,98361.34
2023-03-31T22:07:21.227Z,98363.72
2023-03-31T22:09:48.191Z,98366.41
2023-03-31T22:12:15.068Z,98362.75
2023-03-31T22:14:43.448Z,98363.22
2023-03-31T22:17:10.704Z,98366.84
2023-03-31T22:19:37.747Z,98362.00
2023-03-31T22:22:04.856Z,98358.25
2023-03-31T22:24:31.996Z,98359.88
2023-03-31T22:26:58.883Z,98357.16
2023-03-31T22:29:25.817Z,98367.81
2023-03-31T22:31:54.810Z,98365.38
2023-03-31T22:34:21.923Z,98360.63
2023-03-31T22:36:49.508Z,98361.44
2023-03-31T22:39:17.932Z,98366.25
2023-03-31T22:41:45.612Z,98353.75
2023-03-31T22:44:12.822Z,98364.38
2023-03-31T22:46:39.914Z,98372.38
2023-03-31T22:49:09.385Z,98365.19
2023-03-31T22:51:36.502Z,98373.38
2023-03-31T22:54:03.620Z,98365.19
2023-03-31T22:56:30.675Z,98365.03
2023-03-31T22:58:57.974Z,98366.34
2023-03-31T23:01:25.522Z,98367.16
2023-03-31T23:03:52.825Z,98378.53
2023-03-31T23:06:21.477Z,98373.97
2023-03-31T23:08:48.558Z,98372.56
2023-03-31T23:11:16.311Z,98374.69
2023-03-31T23:13:43.115Z,98369.84
2023-03-31T23:16:13.038Z,98368.81
2023-03-31T23:18:39.930Z,98373.38
2023-03-31T23:21:07.170Z,98361.44
2023-03-31T23:23:39.449Z,98362.25
2023-03-31T23:26:06.782Z,98361.09
2023-03-31T23:28:37.060Z,98365.72
2023-03-31T23:31:05.581Z,98367.00
2023-03-31T23:33:32.923Z,98364.22
2023-03-31T23:36:01.484Z,98365.75
2023-03-31T23:38:29.366Z,98363.06
2023-03-31T23:40:58.743Z,98361.94
2023-03-31T23:43:26.601Z,98359.78
2023-03-31T23:45:54.501Z,98377.78
2023-03-31T23:48:21.767Z,98370.75
2023-03-31T23:50:48.580Z,98370.41
2023-03-31T23:53:15.448Z,98368.31
2023-03-31T23:55:43.367Z,98363.00
2023-03-31T23:58:11.768Z,98363.81
